Time;durP1;ratioP1;P1;durP2;ratioP2;P2;SDS_P1;SDS_P2;PMS_P1;PMS_P2;Temp;Humidity;BMP_temperature;BMP_pressure;BME280_temperature;BME280_humidity;BME280_pressure;Samples;Min_cycle;Max_cycle;Signal;HPM_P1;HPM_P2
2021/09/30 00:00:17;;;;;;;8.75;5.75;;;;;;;16.45;62.22;101326.75;5031691;28;20481;-67
2021/09/30 00:02:42;;;;;;;8.95;5.40;;;;;;;16.41;62.16;101324.88;5030716;28;20034;-66
2021/09/30 00:05:10;;;;;;;14.43;5.78;;;;;;;16.52;61.78;101328.66;5031768;28;20039;-71
2021/09/30 00:07:35;;;;;;;8.55;5.47;;;;;;;16.48;61.82;101321.59;5021468;28;20033;-68
2021/09/30 00:10:01;;;;;;;16.17;6.53;;;;;;;16.21;62.05;101293.06;5014166;28;20030;-67
2021/09/30 00:12:31;;;;;;;12.88;7.40;;;;;;;16.52;61.50;101331.25;5019044;28;20030;-70
2021/09/30 00:15:00;;;;;;;19.70;8.90;;;;;;;16.52;61.68;101330.38;5025706;28;20034;-69
2021/09/30 00:33:55;;;;;;;16.65;7.35;;;;;;;16.47;62.16;101338.06;4970801;28;20041;-68
2021/09/30 02:27:06;;;;;;;30.90;7.75;;;;;;;15.68;62.24;101308.06;4991998;28;20644;-70
2021/09/30 02:59:28;;;;;;;25.85;7.22;;;;;;;15.71;62.90;101350.66;4937028;29;20489;-69
2021/09/30 03:01:56;;;;;;;21.45;7.03;;;;;;;15.61;62.55;101336.47;4951270;28;20027;-70
2021/09/30 03:04:23;;;;;;;18.65;7.70;;;;;;;15.71;62.89;101348.94;4953178;29;20031;-69
2021/09/30 03:06:49;;;;;;;25.30;8.20;;;;;;;15.41;62.86;101320.25;4953236;29;20078;-69
2021/09/30 03:09:19;;;;;;;45.13;8.70;;;;;;;15.31;62.92;101356.38;4952997;28;20035;-69
2021/09/30 03:11:50;;;;;;;59.67;9.63;;;;;;;15.40;62.74;101347.13;4953079;29;20600;-68
2021/09/30 03:14:18;;;;;;;27.33;7.78;;;;;;;15.41;62.77;101361.91;4952838;29;20608;-70
2021/09/30 03:16:47;;;;;;;26.83;8.45;;;;;;;15.37;62.50;101351.38;4953003;28;20035;-69
2021/09/30 03:24:50;;;;;;;19.38;7.47;;;;;;;15.29;63.18;101345.06;4971957;28;20058;-69
2021/09/30 03:27:17;;;;;;;22.52;8.25;;;;;;;15.14;63.54;101328.94;4971526;28;20118;-71
2021/09/30 03:29:43;;;;;;;23.23;8.10;;;;;;;15.09;63.83;101354.84;4972047;28;20058;-72
2021/09/30 03:32:09;;;;;;;23.08;7.18;;;;;;;14.85;64.26;101354.88;4952725;28;20642;-69
2021/09/30 03:34:36;;;;;;;21.55;8.05;;;;;;;14.75;63.89;101358.88;4952735;29;20031;-68
2021/09/30 03:37:02;;;;;;;22.35;7.07;;;;;;;14.60;63.98;101360.94;4952576;28;20513;-68
2021/09/30 03:39:29;;;;;;;13.80;7.03;;;;;;;14.20;64.48;101327.50;4952533;29;20514;-70
2021/09/30 03:41:55;;;;;;;14.93;6.35;;;;;;;14.21;64.77;101362.19;4952432;28;20494;-69
2021/09/30 03:44:21;;;;;;;14.25;6.90;;;;;;;13.96;65.34;101350.88;4952521;29;20082;-71
2021/09/30 03:46:52;;;;;;;15.07;7.60;;;;;;;13.73;66.38;101363.88;4952529;29;20065;-69
2021/09/30 03:49:26;;;;;;;15.82;6.57;;;;;;;13.63;66.48;101374.72;4952543;29;20490;-69
2021/09/30 03:52:16;;;;;;;16.02;6.72;;;;;;;13.51;67.32;101369.06;4952332;28;20043;-68
2021/09/30 03:57:38;;;;;;;17.77;7.50;;;;;;;13.24;68.25;101367.09;4914186;29;20117;-69
2021/09/30 04:00:05;;;;;;;15.80;7.85;;;;;;;13.13;68.66;101364.06;4914012;29;20495;-69
2021/09/30 04:02:30;;;;;;;15.38;7.38;;;;;;;13.15;68.74;101365.00;4947666;29;20047;-68
2021/09/30 04:04:56;;;;;;;13.07;7.45;;;;;;;13.00;69.74;101365.28;4951414;28;20043;-69
2021/09/30 04:07:22;;;;;;;17.92;7.30;;;;;;;12.79;70.41;101363.53;4957969;28;20031;-70
2021/09/30 04:09:48;;;;;;;11.43;6.88;;;;;;;12.78;70.42;101359.22;4970096;28;20054;-70
2021/09/30 04:12:13;;;;;;;15.48;8.05;;;;;;;12.58;70.77;101341.91;4970852;28;20130;-69
2021/09/30 04:14:41;;;;;;;16.02;7.72;;;;;;;12.59;70.97;101351.47;4971349;28;20035;-69
2021/09/30 04:17:07;;;;;;;15.15;7.75;;;;;;;12.42;71.32;101349.03;4971299;28;20039;-70
2021/09/30 04:19:32;;;;;;;13.63;7.85;;;;;;;12.37;71.70;101344.47;4970975;28;20478;-70
2021/09/30 04:21:58;;;;;;;13.93;7.57;;;;;;;12.26;72.26;101344.88;4968252;28;20046;-70
2021/09/30 04:24:24;;;;;;;16.10;7.60;;;;;;;12.23;72.53;101344.72;4970953;28;20035;-69
2021/09/30 04:26:51;;;;;;;18.08;8.00;;;;;;;12.17;72.61;101348.75;4970199;28;20047;-71
2021/09/30 04:29:18;;;;;;;17.98;8.18;;;;;;;12.06;73.38;101348.28;4969534;28;20050;-69
2021/09/30 04:31:45;;;;;;;16.67;7.97;;;;;;;12.20;73.25;101354.06;4958506;28;20035;-71
2021/09/30 04:34:11;;;;;;;16.35;8.45;;;;;;;12.20;73.29;101343.72;4975548;28;20092;-71
2021/09/30 04:36:37;;;;;;;15.75;8.23;;;;;;;12.53;72.18;101357.25;5002605;28;20022;-70
2021/09/30 04:39:03;;;;;;;18.65;8.50;;;;;;;12.56;71.93;101366.84;5000552;28;20030;-70
2021/09/30 04:41:28;;;;;;;21.73;8.65;;;;;;;12.74;71.14;101362.47;4997823;28;20026;-69
2021/09/30 04:43:54;;;;;;;16.13;8.27;;;;;;;12.59;70.54;101330.75;5010308;28;20036;-69
2021/09/30 04:46:20;;;;;;;17.55;7.65;;;;;;;12.81;69.62;101339.41;5012034;28;20034;-68
2021/09/30 04:48:47;;;;;;;17.48;8.75;;;;;;;12.99;69.41;101373.00;5011590;28;20036;-69
2021/09/30 04:51:13;;;;;;;17.42;7.78;;;;;;;12.88;70.23;101377.72;5011985;28;20053;-69
2021/09/30 04:53:39;;;;;;;13.52;8.20;;;;;;;12.67;70.81;101368.19;5012013;28;20069;-71
2021/09/30 04:56:06;;;;;;;12.10;7.68;;;;;;;13.04;69.81;101374.94;5006726;28;20041;-71
2021/09/30 04:58:32;;;;;;;13.85;7.57;;;;;;;12.95;69.88;101344.34;5004277;28;20036;-69
2021/09/30 05:00:57;;;;;;;20.58;8.02;;;;;;;13.25;69.68;101376.66;5003972;28;20038;-76
2021/09/30 05:03:23;;;;;;;19.20;7.97;;;;;;;12.96;70.22;101345.25;4994803;28;20030;-71
2021/09/30 05:05:49;;;;;;;23.10;8.88;;;;;;;13.08;70.71;101375.94;5007182;28;20029;-69
2021/09/30 05:08:15;;;;;;;17.13;8.88;;;;;;;13.00;70.62;101367.88;5011115;28;20069;-71
2021/09/30 05:10:42;;;;;;;26.90;10.05;;;;;;;13.03;70.79;101386.13;5011094;28;20461;-72
2021/09/30 05:13:21;;;;;;;25.67;9.77;;;;;;;13.00;71.49;101393.78;5010940;28;20109;-69
2021/09/30 05:15:47;;;;;;;20.02;8.57;;;;;;;13.05;71.13;101396.56;5011389;28;20084;-70
2021/09/30 05:18:13;;;;;;;14.23;8.40;;;;;;;12.69;71.33;101324.25;5011143;28;20420;-72
2021/09/30 05:20:39;;;;;;;14.93;8.95;;;;;;;13.04;71.09;101393.09;5010762;28;20033;-66
2021/09/30 05:23:04;;;;;;;21.63;9.32;;;;;;;13.10;71.31;101384.69;5011013;28;20494;-66
2021/09/30 05:25:30;;;;;;;17.85;10.23;;;;;;;13.30;70.40;101385.50;5011136;28;20472;-69
2021/09/30 05:27:55;;;;;;;15.98;8.57;;;;;;;13.33;70.06;101369.19;5017331;28;20053;-72
2021/09/30 05:30:22;;;;;;;16.98;8.15;;;;;;;13.58;69.21;101395.31;5030309;28;20061;-68
2021/09/30 05:32:48;;;;;;;21.00;7.93;;;;;;;13.52;68.97;101363.03;5031011;28;20045;-67
2021/09/30 05:35:14;;;;;;;11.10;7.65;;;;;;;13.75;68.92;101403.72;5013513;28;20030;-72
2021/09/30 05:37:40;;;;;;;18.17;7.88;;;;;;;13.77;68.64;101395.13;5030875;28;20021;-69
2021/09/30 05:40:06;;;;;;;15.80;8.07;;;;;;;13.63;68.69;101368.66;5030323;28;20079;-70
2021/09/30 05:42:32;;;;;;;17.27;7.10;;;;;;;13.76;68.77;101396.84;5031091;28;20029;-68
2021/09/30 05:44:59;;;;;;;18.40;7.43;;;;;;;13.62;69.46;101365.19;5030778;28;20030;-69
2021/09/30 05:47:24;;;;;;;22.98;8.00;;;;;;;13.69;68.79;101364.56;5030538;28;20033;-68
2021/09/30 05:49:50;;;;;;;12.38;6.32;;;;;;;13.91;68.87;101394.84;5030764;28;20169;-68
2021/09/30 05:52:16;;;;;;;14.05;6.80;;;;;;;13.83;68.69;101378.09;5030627;28;20092;-70
2021/09/30 05:54:41;;;;;;;13.07;6.55;;;;;;;13.96;68.38;101397.63;5030133;28;20033;-69
2021/09/30 05:57:06;;;;;;;12.48;8.07;;;;;;;14.00;68.97;101393.44;5030766;28;20100;-71
2021/09/30 05:59:32;;;;;;;14.18;7.63;;;;;;;13.98;68.88;101383.00;5030201;28;20107;-71
2021/09/30 06:12:41;;;;;;;27.13;8.20;;;;;;;14.53;68.49;101381.50;5034098;28;20033;-69
2021/09/30 06:15:28;;;;;;;18.50;7.25;;;;;;;14.82;67.35;101396.41;5034165;28;20026;-66
2021/09/30 06:17:56;;;;;;;14.45;6.47;;;;;;;15.19;66.19;101402.84;5033947;28;20030;-69
2021/09/30 06:20:22;;;;;;;16.92;7.18;;;;;;;15.48;65.04;101403.75;5033684;28;20032;-70
2021/09/30 06:22:47;;;;;;;21.00;6.72;;;;;;;15.68;63.83;101386.16;5032780;28;20112;-70
2021/09/30 06:25:12;;;;;;;21.52;6.70;;;;;;;15.88;63.70;101401.56;5033681;28;20025;-71
2021/09/30 06:27:38;;;;;;;16.65;6.95;;;;;;;16.04;63.02;101408.09;5034345;28;20029;-70
2021/09/30 06:30:04;;;;;;;15.70;6.22;;;;;;;16.17;61.55;101399.81;5033560;28;20100;-71
2021/09/30 06:32:30;;;;;;;16.15;6.35;;;;;;;16.34;61.52;101410.69;5033758;28;20466;-69
2021/09/30 06:34:56;;;;;;;21.52;6.32;;;;;;;16.42;61.22;101412.66;5033904;28;20029;-70
2021/09/30 06:37:21;;;;;;;17.98;6.40;;;;;;;16.62;60.72;101415.81;5033468;28;20028;-69
2021/09/30 06:39:46;;;;;;;22.88;6.50;;;;;;;16.59;60.65;101415.72;5033305;28;20396;-69
2021/09/30 06:42:12;;;;;;;24.48;6.05;;;;;;;16.78;59.70;101417.09;5033605;28;20454;-70
2021/09/30 06:44:37;;;;;;;14.73;5.68;;;;;;;16.77;60.38;101395.38;5033721;28;20025;-70
2021/09/30 06:47:03;;;;;;;26.17;6.35;;;;;;;16.86;59.30;101384.28;5033429;28;20025;-68
2021/09/30 06:49:28;;;;;;;24.58;6.65;;;;;;;16.93;60.01;101406.22;5033598;28;20032;-69
2021/09/30 06:51:54;;;;;;;20.17;5.88;;;;;;;17.08;58.11;101413.56;5033262;28;20037;-69
2021/09/30 06:54:19;;;;;;;20.95;6.75;;;;;;;17.25;57.68;101409.63;5033162;28;20108;-68
2021/09/30 06:56:48;;;;;;;23.27;5.93;;;;;;;17.28;57.71;101404.50;5033316;28;20468;-69
2021/09/30 06:59:19;;;;;;;26.65;7.03;;;;;;;17.40;57.70;101405.66;5032963;28;20029;-68
2021/09/30 07:01:45;;;;;;;27.35;6.22;;;;;;;17.58;56.51;101400.88;5033454;28;20029;-69
2021/09/30 07:04:11;;;;;;;19.10;6.55;;;;;;;17.76;55.33;101409.97;5032990;28;20033;-69
2021/09/30 07:06:36;;;;;;;19.38;5.30;;;;;;;17.73;54.44;101407.25;5033037;28;20660;-70
2021/09/30 07:09:04;;;;;;;17.10;5.68;;;;;;;17.86;54.54;101414.53;5033041;28;20483;-69
2021/09/30 07:11:30;;;;;;;26.95;6.32;;;;;;;18.17;51.67;101404.78;5032714;28;20022;-71
2021/09/30 07:13:56;;;;;;;33.47;6.93;;;;;;;18.28;51.80;101407.63;5032550;28;20029;-68
2021/09/30 07:16:22;;;;;;;20.52;5.75;;;;;;;18.45;51.14;101407.94;5033055;28;20498;-69
2021/09/30 07:18:47;;;;;;;15.32;4.15;;;;;;;18.57;51.24;101409.91;5033019;28;20030;-68
2021/09/30 07:21:13;;;;;;;20.73;5.32;;;;;;;18.53;51.52;101406.34;5032735;28;20033;-69
2021/09/30 07:23:38;;;;;;;11.82;4.53;;;;;;;18.56;51.44;101409.00;5032519;28;20021;-73
2021/09/30 07:26:07;;;;;;;24.83;5.90;;;;;;;18.43;51.01;101404.44;5032433;28;20108;-69
2021/09/30 07:28:33;;;;;;;15.57;5.53;;;;;;;18.68;50.25;101407.47;5032556;28;20044;-68
2021/09/30 07:30:59;;;;;;;14.15;4.35;;;;;;;18.67;51.17;101395.28;5033122;28;20594;-69
2021/09/30 07:33:24;;;;;;;19.25;5.47;;;;;;;18.83;52.21;101410.41;5032824;28;20028;-70
2021/09/30 07:35:51;;;;;;;16.77;5.57;;;;;;;18.65;49.29;101378.66;5018598;28;20036;-68
2021/09/30 07:38:16;;;;;;;24.88;5.40;;;;;;;19.00;49.45;101415.06;5032768;28;20036;-67
2021/09/30 07:40:42;;;;;;;17.77;4.75;;;;;;;18.68;50.29;101352.56;5032312;28;20034;-76
2021/09/30 07:43:08;;;;;;;21.55;5.80;;;;;;;19.10;49.52;101413.50;5032478;28;20029;-69
2021/09/30 07:45:34;;;;;;;23.73;5.22;;;;;;;19.00;48.05;101368.84;5032422;28;20029;-67
2021/09/30 07:47:59;;;;;;;16.95;4.90;;;;;;;19.11;48.20;101408.28;5029152;28;20104;-70
2021/09/30 07:50:24;;;;;;;31.17;7.45;;;;;;;19.15;48.09;101415.34;5026781;28;20026;-69
2021/09/30 07:52:50;;;;;;;25.88;4.78;;;;;;;19.32;45.21;101406.88;5032503;28;20535;-72
2021/09/30 07:55:16;;;;;;;12.27;3.78;;;;;;;19.55;44.68;101400.25;5031807;28;20458;-68
2021/09/30 07:57:41;;;;;;;12.02;3.78;;;;;;;19.46;42.70;101368.69;5029451;28;20025;-68
2021/09/30 08:00:08;;;;;;;14.85;4.70;;;;;;;19.31;42.16;101381.56;5025636;28;20034;-71
2021/09/30 08:02:33;;;;;;;20.10;5.03;;;;;;;19.48;44.26;101401.00;5030753;28;20093;-70
2021/09/30 08:04:58;;;;;;;20.92;5.80;;;;;;;19.62;43.04;101398.59;5030202;28;20026;-70
2021/09/30 08:07:24;;;;;;;17.40;3.75;;;;;;;19.54;42.53;101390.63;5032287;28;20523;-74
2021/09/30 08:09:49;;;;;;;17.08;3.83;;;;;;;19.38;41.43;101391.28;5032097;28;20489;-69
2021/09/30 08:12:16;;;;;;;14.70;4.28;;;;;;;19.44;42.91;101386.13;5032022;28;20515;-71
2021/09/30 08:14:41;;;;;;;17.02;4.35;;;;;;;19.59;41.22;101387.19;5032353;28;20029;-71
2021/09/30 08:17:07;;;;;;;19.45;4.55;;;;;;;19.68;41.34;101390.81;5022019;28;20408;-70
2021/09/30 08:19:32;;;;;;;17.33;4.78;;;;;;;19.95;40.69;101399.06;5012245;28;20543;-70
2021/09/30 08:21:58;;;;;;;17.33;4.68;;;;;;;20.07;40.12;101390.50;4981704;28;20420;-69
2021/09/30 08:24:24;;;;;;;27.95;4.35;;;;;;;20.26;37.90;101399.47;5027486;28;20103;-69
2021/09/30 08:26:49;;;;;;;15.93;3.58;;;;;;;20.28;37.11;101369.78;5018783;28;20033;-72
2021/09/30 08:29:18;;;;;;;11.80;4.03;;;;;;;20.41;37.56;101372.53;5026229;28;20480;-70
2021/09/30 08:31:44;;;;;;;13.18;4.68;;;;;;;20.41;36.82;101348.94;5027151;28;20064;-73
2021/09/30 08:34:10;;;;;;;9.15;3.45;;;;;;;20.62;36.92;101374.50;5031827;28;20032;-72
2021/09/30 08:36:36;;;;;;;13.27;4.38;;;;;;;20.55;38.41;101359.56;5028250;28;20033;-71
2021/09/30 08:39:06;;;;;;;19.35;4.25;;;;;;;20.65;38.03;101375.41;5020504;28;20425;-70
2021/09/30 08:41:31;;;;;;;21.73;4.35;;;;;;;20.66;39.47;101376.28;4994193;28;20511;-69
2021/09/30 08:43:57;;;;;;;14.93;3.90;;;;;;;20.81;38.51;101384.34;5011740;28;20021;-71
2021/09/30 08:46:23;;;;;;;16.25;4.30;;;;;;;20.84;37.43;101373.84;4995931;28;20035;-71
2021/09/30 08:48:49;;;;;;;17.17;3.90;;;;;;;20.77;38.15;101376.41;5021789;28;20460;-72
2021/09/30 08:51:16;;;;;;;27.27;4.60;;;;;;;20.81;37.77;101368.59;5011880;28;20137;-69
2021/09/30 08:53:43;;;;;;;11.45;3.95;;;;;;;20.89;35.44;101366.03;5012004;28;20388;-72
2021/09/30 08:56:09;;;;;;;22.08;4.47;;;;;;;20.86;37.46;101360.78;5011961;28;20053;-69
2021/09/30 08:58:37;;;;;;;8.10;3.58;;;;;;;21.03;37.05;101357.41;5014896;28;20087;-70
2021/09/30 09:01:06;;;;;;;11.68;3.60;;;;;;;21.16;35.86;101372.41;5011623;28;20030;-69
2021/09/30 09:03:36;;;;;;;16.20;3.97;;;;;;;21.20;36.37;101360.13;5011511;28;20037;-71
2021/09/30 09:06:02;;;;;;;24.60;5.82;;;;;;;21.22;36.87;101358.41;5011427;28;20033;-71
2021/09/30 09:08:27;;;;;;;14.27;3.97;;;;;;;21.03;35.99;101328.53;5011287;28;20109;-70
2021/09/30 09:10:55;;;;;;;11.15;3.50;;;;;;;21.27;35.40;101362.84;5011632;28;20160;-72
2021/09/30 09:13:22;;;;;;;12.02;3.72;;;;;;;21.40;36.32;101357.66;5011526;28;20116;-70
2021/09/30 09:15:59;;;;;;;12.88;3.67;;;;;;;21.52;35.57;101356.84;5011349;28;20404;-69
2021/09/30 09:18:46;;;;;;;15.13;3.67;;;;;;;21.54;34.56;101360.38;5011331;28;20058;-70
2021/09/30 09:21:23;;;;;;;12.30;4.35;;;;;;;21.47;35.06;101352.47;5011340;28;20038;-69
2021/09/30 09:23:51;;;;;;;18.42;4.20;;;;;;;21.62;36.01;101364.84;5011402;28;20022;-70
2021/09/30 09:26:19;;;;;;;13.35;4.43;;;;;;;21.66;34.29;101363.09;5011578;28;20076;-70
2021/09/30 09:29:14;;;;;;;17.60;4.80;;;;;;;21.58;35.56;101357.81;5011146;28;20527;-71
2021/09/30 09:31:47;;;;;;;12.20;3.88;;;;;;;21.67;36.92;101357.00;4978214;28;20065;-69
2021/09/30 09:34:20;;;;;;;11.20;3.90;;;;;;;21.87;36.01;101349.19;5012325;28;20025;-69
2021/09/30 09:36:49;;;;;;;13.45;4.55;;;;;;;21.92;35.05;101362.34;5015223;28;20049;-70
2021/09/30 09:39:15;;;;;;;19.35;6.00;;;;;;;21.97;35.78;101356.22;5015217;28;20029;-69
2021/09/30 09:41:40;;;;;;;11.32;3.88;;;;;;;21.97;35.54;101348.34;5015123;28;20034;-74
2021/09/30 09:44:07;;;;;;;13.88;3.70;;;;;;;21.78;36.71;101350.03;5015156;28;20463;-73
2021/09/30 09:46:36;;;;;;;14.25;3.80;;;;;;;21.79;35.65;101349.16;5015277;28;20022;-70
2021/09/30 09:49:14;;;;;;;13.32;3.85;;;;;;;21.87;35.00;101343.94;5015204;28;20022;-70
2021/09/30 09:51:45;;;;;;;11.60;3.72;;;;;;;22.07;35.09;101345.75;5015031;28;20034;-73
2021/09/30 09:54:16;;;;;;;11.50;3.40;;;;;;;22.34;34.35;101318.63;5014862;28;20017;-73
2021/09/30 09:56:43;;;;;;;16.15;4.03;;;;;;;22.40;34.74;101334.47;5015106;28;20037;-70
2021/09/30 09:59:09;;;;;;;9.05;3.53;;;;;;;22.68;32.97;101323.09;5014672;28;20029;-70
2021/09/30 10:01:43;;;;;;;7.70;3.10;;;;;;;22.80;32.77;101336.25;5027017;28;20025;-75
2021/09/30 10:04:11;;;;;;;7.65;3.13;;;;;;;22.95;32.29;101322.22;5034488;28;20680;-71
2021/09/30 10:06:37;;;;;;;8.85;3.50;;;;;;;23.04;32.73;101330.13;5034534;28;20507;-70
2021/09/30 10:09:08;;;;;;;9.77;3.50;;;;;;;23.13;32.75;101297.63;5034200;28;20025;-70
2021/09/30 10:11:34;;;;;;;10.25;3.60;;;;;;;23.37;32.67;101325.69;5034521;28;20037;-70
2021/09/30 10:14:03;;;;;;;11.43;3.13;;;;;;;23.47;31.99;101310.72;5034357;28;20033;-70
2021/09/30 10:16:29;;;;;;;15.05;3.92;;;;;;;23.48;32.10;101315.13;5034254;28;20029;-72
2021/09/30 10:19:05;;;;;;;12.40;3.45;;;;;;;23.68;31.85;101316.81;5032667;28;20029;-69
2021/09/30 10:21:32;;;;;;;17.08;3.47;;;;;;;23.88;30.51;101314.09;5034194;28;20040;-71
2021/09/30 10:24:02;;;;;;;14.45;3.90;;;;;;;23.96;31.32;101306.16;5021330;28;20048;-69
2021/09/30 10:26:34;;;;;;;16.02;3.80;;;;;;;23.48;33.72;101311.59;4996064;28;20073;-69
2021/09/30 10:29:00;;;;;;;11.70;3.80;;;;;;;23.13;33.43;101304.63;5014665;28;20029;-70
2021/09/30 10:31:32;;;;;;;11.30;4.38;;;;;;;22.89;33.02;101301.16;5026085;28;20107;-69
2021/09/30 10:34:01;;;;;;;21.15;5.07;;;;;;;22.68;33.25;101316.09;5024668;28;20033;-73
2021/09/30 10:36:33;;;;;;;10.50;3.80;;;;;;;22.49;33.31;101304.66;5014261;28;20045;-73
2021/09/30 10:39:22;;;;;;;9.32;3.70;;;;;;;22.34;33.97;101313.38;5014176;28;20084;-69
2021/09/30 10:41:51;;;;;;;11.60;3.53;;;;;;;22.22;34.08;101294.94;5021519;28;20128;-71
2021/09/30 10:44:21;;;;;;;12.52;4.20;;;;;;;22.54;33.67;101307.28;5028870;28;20037;-73
2021/09/30 10:46:53;;;;;;;9.13;3.13;;;;;;;22.80;32.13;101294.13;5033122;28;20519;-70
2021/09/30 10:49:31;;;;;;;14.80;3.83;;;;;;;22.82;31.21;101296.75;4999397;28;20103;-70
2021/09/30 10:52:23;;;;;;;10.02;3.58;;;;;;;23.16;30.57;101299.41;5023722;28;20026;-70
2021/09/30 10:55:02;;;;;;;10.25;3.83;;;;;;;23.16;30.30;101302.03;5023789;28;20029;-70
2021/09/30 10:57:43;;;;;;;12.10;3.90;;;;;;;23.13;31.20;101299.34;5015990;28;20067;-69
2021/09/30 11:00:18;;;;;;;11.27;3.38;;;;;;;23.51;29.98;101295.78;5033250;28;20539;-69
2021/09/30 11:03:10;;;;;;;10.60;3.33;;;;;;;23.89;30.22;101286.84;5032898;28;20113;-70
2021/09/30 11:05:38;;;;;;;10.65;3.35;;;;;;;23.97;29.97;101287.69;5033359;28;20036;-70
2021/09/30 11:08:24;;;;;;;13.20;3.53;;;;;;;24.16;28.99;101280.56;5016014;28;20071;-70
2021/09/30 11:11:08;;;;;;;18.98;3.85;;;;;;;24.41;29.35;101276.88;5014591;28;20103;-70
2021/09/30 11:13:49;;;;;;;9.35;3.35;;;;;;;24.11;29.25;101266.50;5020492;28;20033;-70
2021/09/30 11:16:16;;;;;;;12.32;3.50;;;;;;;23.82;30.47;101280.72;5013657;28;20040;-73
2021/09/30 11:18:46;;;;;;;27.02;6.00;;;;;;;23.68;30.44;101293.97;5013409;28;20029;-69
2021/09/30 11:21:34;;;;;;;;;;;;;;;23.24;30.68;101281.81;5020798;28;20029;-70
2021/09/30 11:24:04;;;;;;;9.18;3.08;;;;;;;23.01;30.47;101273.94;5022382;28;19992;-70
2021/09/30 11:26:35;;;;;;;9.40;3.28;;;;;;;22.84;31.44;101271.31;5023318;28;20030;-70
2021/09/30 11:29:19;;;;;;;6.43;3.30;;;;;;;23.34;30.27;101283.56;5023698;28;20126;-73
2021/09/30 11:31:45;;;;;;;6.55;3.05;;;;;;;23.67;31.46;101276.38;5023579;28;20041;-71
2021/09/30 11:34:18;;;;;;;8.93;3.50;;;;;;;23.99;30.00;101272.75;5023255;28;20032;-72
2021/09/30 11:36:43;;;;;;;10.93;3.45;;;;;;;24.25;32.09;101270.81;5026884;28;20069;-74
2021/09/30 11:39:10;;;;;;;8.88;3.53;;;;;;;24.41;30.17;101259.25;5029857;28;20554;-73
2021/09/30 11:41:38;;;;;;;17.85;4.45;;;;;;;24.34;31.08;101228.53;5024960;28;20029;-72
2021/09/30 11:44:05;;;;;;;8.15;3.38;;;;;;;24.45;29.81;101262.75;5026204;28;20111;-74
2021/09/30 11:46:32;;;;;;;6.45;2.92;;;;;;;24.28;29.29;101261.13;5026540;28;20507;-73
2021/09/30 11:49:00;;;;;;;9.95;2.70;;;;;;;23.78;29.67;101259.66;5019269;28;20030;-71
2021/09/30 11:51:33;;;;;;;9.68;2.80;;;;;;;23.53;29.63;101258.00;5028924;28;20037;-71
2021/09/30 11:54:00;;;;;;;11.43;3.22;;;;;;;23.16;31.52;101257.25;5021472;28;20053;-72
2021/09/30 11:56:26;;;;;;;14.60;4.18;;;;;;;23.03;32.90;101261.63;5031190;28;20558;-72
2021/09/30 11:59:05;;;;;;;14.35;4.53;;;;;;;23.09;32.49;101267.78;5012589;28;20085;-70
2021/09/30 12:01:41;;;;;;;21.45;5.72;;;;;;;23.02;32.96;101268.66;5024163;28;20084;-70
2021/09/30 12:04:08;;;;;;;18.02;3.78;;;;;;;23.24;32.60;101247.56;5032369;28;20084;-70
2021/09/30 12:06:47;;;;;;;10.43;3.15;;;;;;;23.48;32.18;101249.25;5032238;28;20033;-69
2021/09/30 12:09:15;;;;;;;8.13;2.70;;;;;;;23.57;31.20;101236.00;5032282;28;20120;-70
2021/09/30 12:12:03;;;;;;;9.30;3.90;;;;;;;23.41;32.55;101245.75;5032178;28;20033;-72
2021/09/30 12:14:40;;;;;;;12.95;3.50;;;;;;;23.15;32.51;101235.25;5031894;28;20067;-70
2021/09/30 12:17:12;;;;;;;9.85;3.33;;;;;;;22.99;33.48;101234.44;5032205;28;20112;-71
2021/09/30 12:19:41;;;;;;;10.95;3.40;;;;;;;23.27;32.40;101240.53;4989542;28;20050;-71
2021/09/30 12:22:10;;;;;;;14.98;3.53;;;;;;;23.34;31.96;101236.13;5030977;28;20044;-71
2021/09/30 12:24:42;;;;;;;9.98;3.33;;;;;;;23.40;32.66;101233.47;5031154;28;20387;-72
2021/09/30 12:27:10;;;;;;;17.48;4.50;;;;;;;23.36;31.88;101231.72;5031276;28;20061;-70
2021/09/30 12:29:44;;;;;;;10.07;3.33;;;;;;;22.84;33.06;101230.09;5032046;28;20041;-71
2021/09/30 12:32:15;;;;;;;21.48;4.43;;;;;;;22.63;34.66;101244.16;5030103;28;20106;-71
2021/09/30 12:34:44;;;;;;;18.60;4.40;;;;;;;22.53;35.32;101237.13;5027708;28;20499;-71
2021/09/30 12:37:21;;;;;;;19.13;4.28;;;;;;;22.22;35.96;101248.47;5026652;28;20057;-70
2021/09/30 12:40:09;;;;;;;18.13;4.22;;;;;;;22.14;35.46;101237.97;5030649;28;20073;-71
2021/09/30 12:42:37;;;;;;;17.97;4.20;;;;;;;22.05;35.42;101208.16;5025239;28;20389;-70
2021/09/30 12:45:05;;;;;;;13.80;4.40;;;;;;;22.35;34.96;101230.94;5024494;28;20117;-72
2021/09/30 12:47:31;;;;;;;13.70;4.10;;;;;;;22.53;34.84;101237.13;5029641;28;20048;-71
2021/09/30 12:50:04;;;;;;;25.45;6.50;;;;;;;22.48;35.82;101228.34;5030254;28;20064;-72
2021/09/30 12:52:30;;;;;;;19.27;5.63;;;;;;;22.66;34.85;101243.28;5027614;28;20025;-70
2021/09/30 12:54:56;;;;;;;22.27;5.10;;;;;;;22.61;35.03;101227.47;5031748;28;20067;-74
2021/09/30 12:57:30;;;;;;;28.80;5.53;;;;;;;22.50;34.50;101219.56;5026755;28;20061;-71
2021/09/30 13:00:12;;;;;;;8.68;3.05;;;;;;;22.24;35.10;101230.97;5028706;28;20053;-73
2021/09/30 13:02:38;;;;;;;16.17;4.40;;;;;;;21.71;34.67;101211.59;5027014;28;20035;-73
2021/09/30 13:05:05;;;;;;;16.30;3.83;;;;;;;22.04;35.10;101238.81;5031264;28;20033;-71
2021/09/30 13:07:43;;;;;;;20.88;3.90;;;;;;;22.17;34.05;101242.34;4996688;28;20563;-72
2021/09/30 13:10:10;;;;;;;17.90;4.28;;;;;;;22.05;33.72;101213.41;5029862;28;20596;-71
2021/09/30 13:12:35;;;;;;;15.73;3.90;;;;;;;22.21;33.60;101219.56;5031190;28;20087;-72
2021/09/30 13:15:01;;;;;;;19.25;5.15;;;;;;;22.34;34.35;101226.56;5031582;28;20033;-73
2021/09/30 13:17:28;;;;;;;26.35;5.70;;;;;;;22.35;34.00;101233.56;5031549;28;20057;-74
2021/09/30 13:20:06;;;;;;;17.88;3.70;;;;;;;22.37;34.82;101217.78;5035190;28;20102;-68
2021/09/30 13:22:34;;;;;;;7.50;2.90;;;;;;;22.48;34.79;101233.63;5012682;28;20030;-70
2021/09/30 13:25:11;;;;;;;16.38;4.20;;;;;;;22.55;34.74;101233.59;5033167;28;20264;-73
2021/09/30 13:27:40;;;;;;;8.90;2.95;;;;;;;22.47;34.83;101219.59;5031488;28;20125;-71
2021/09/30 13:30:09;;;;;;;7.47;3.33;;;;;;;22.28;35.47;101213.41;5023235;28;20030;-73
2021/09/30 13:32:35;;;;;;;8.57;3.28;;;;;;;22.37;35.84;101223.97;4999564;28;20046;-75
2021/09/30 13:35:02;;;;;;;10.20;3.33;;;;;;;22.43;35.56;101229.25;5002139;28;20044;-74
2021/09/30 13:37:28;;;;;;;13.25;4.35;;;;;;;22.32;36.22;101203.75;5008508;28;20551;-70
2021/09/30 13:39:56;;;;;;;9.20;3.42;;;;;;;22.32;36.88;101232.69;5006842;28;20034;-75
2021/09/30 13:42:27;;;;;;;13.38;3.72;;;;;;;22.22;37.95;101226.53;5000412;28;20022;-76
2021/09/30 13:44:52;;;;;;;14.45;4.30;;;;;;;22.24;36.90;101243.22;5006743;28;20084;-80
2021/09/30 13:47:18;;;;;;;19.60;4.88;;;;;;;22.20;37.56;101241.47;4998083;28;20026;-67
2021/09/30 13:49:43;;;;;;;15.85;3.80;;;;;;;22.16;37.00;101237.97;5000975;28;20133;-68
2021/09/30 13:52:09;;;;;;;12.50;3.70;;;;;;;22.21;37.42;101243.22;4975296;28;20511;-70
2021/09/30 13:54:35;;;;;;;15.15;4.65;;;;;;;21.99;37.67;101201.09;4995669;28;20033;-68
2021/09/30 13:57:01;;;;;;;10.07;3.70;;;;;;;22.00;37.84;101223.91;4991760;28;20456;-68
2021/09/30 13:59:27;;;;;;;10.07;3.83;;;;;;;22.08;38.24;101231.78;5010358;28;20034;-67
2021/09/30 14:01:52;;;;;;;14.55;4.20;;;;;;;22.01;39.59;101238.81;5000103;28;20029;-69
2021/09/30 14:04:18;;;;;;;12.57;4.22;;;;;;;21.92;40.00;101234.41;4999643;28;20109;-70
2021/09/30 14:06:43;;;;;;;12.70;3.50;;;;;;;21.94;39.86;101227.41;4995144;28;20665;-69
2021/09/30 14:09:09;;;;;;;17.52;3.42;;;;;;;22.03;40.32;101229.19;5006972;28;20030;-69
2021/09/30 14:11:35;;;;;;;10.88;3.20;;;;;;;22.07;40.02;101230.03;5010417;28;20026;-71
2021/09/30 14:14:00;;;;;;;12.80;3.25;;;;;;;22.07;40.05;101241.44;5007778;28;20080;-72
2021/09/30 14:16:26;;;;;;;22.40;3.90;;;;;;;21.78;40.00;101213.34;4996811;28;20026;-71
2021/09/30 14:18:52;;;;;;;7.18;2.60;;;;;;;21.88;40.04;101244.91;5010132;28;20033;-67
2021/09/30 14:21:18;;;;;;;11.75;2.58;;;;;;;21.87;40.46;101248.41;5008128;28;20129;-74